ADDS METAR Data INFO
IDs: Format: Raw Decoded Include TAF

Data at: 0249 UTC 21 Jan 2018

KGGI 210235Z AUTO 10005KT 7SM BKN030 03/02 A2992 RMK AO2 T00280018
KGGI 210215Z AUTO 11005KT 7SM OVC028 03/02 A2993 RMK AO2 T00270020
KGGI 210155Z AUTO 12003KT 5SM BR OVC026 02/02 A2993 RMK AO2 T00210015
KGGI 210135Z AUTO 12003KT 7SM OVC026 03/02 A2993 RMK AO2 T00250017
KGGI 210115Z AUTO 12003KT 5SM BR SCT026 02/01 A2992 RMK AO2 T00160009
KGGI 210055Z AUTO 00000KT 7SM CLR 02/01 A2992 RMK AO2 T00200010
KGGI 210035Z AUTO 00000KT 7SM CLR 03/02 A2992 RMK AO2 T00250015
KGGI 210015Z AUTO 00000KT 7SM CLR 02/01 A2991 RMK AO2 T00230012
KGGI 202355Z AUTO 14003KT 10SM CLR 03/01 A2991 RMK AO2 T00270014 10075 20027
KGGI 202335Z AUTO 00000KT 10SM CLR 03/02 A2990 RMK AO2 T00310015
KGGI 202315Z AUTO 18003KT 10SM CLR 03/01 A2990 RMK AO2 T00320012
KGGI 202255Z AUTO 20004KT 10SM CLR 05/02 A2990 RMK AO2 T00450021
KGGI 202235Z AUTO 21006KT 10SM CLR 05/03 A2990 RMK AO2 T00540025
KGGI 202215Z AUTO 20007KT 10SM CLR 06/03 A2989 RMK AO2 T00590027
KGGI 202155Z AUTO 19008KT 10SM CLR 06/03 A2988 RMK AO2 T00620028
KGGI 202135Z AUTO 20008KT 10SM CLR 07/03 A2988 RMK AO2 T00660029
KGGI 202115Z AUTO 20006KT 10SM CLR 07/03 A2988 RMK AO2 T00670030
KGGI 202055Z AUTO 21007KT 10SM CLR 07/03 A2988 RMK AO2 T00700029
KGGI 202035Z AUTO 21005KT 10SM CLR 07/02 A2987 RMK AO2 T00720023
KGGI 202015Z AUTO 19004KT 10SM CLR 08/02 A2987 RMK AO2 T00750022
KGGI 201955Z AUTO 23005KT 10SM CLR 08/02 A2988 RMK AO2 T00750020
KGGI 201935Z AUTO 22007KT 10SM CLR 07/02 A2987 RMK AO2 T00730018
KGGI 201915Z AUTO 20009KT 10SM CLR 07/02 A2988 RMK AO2 T00710016
KGGI 201855Z AUTO 22009KT 10SM CLR 07/01 A2988 RMK AO2 T00660007
KGGI 201835Z AUTO 19010KT 10SM CLR 06/01 A2988 RMK AO2 T00600005
KGGI 201815Z AUTO 21007KT 10SM CLR 06/00 A2989 RMK AO2 T00570001
KGGI 201755Z AUTO 21007KT 10SM CLR 06/00 A2989 RMK AO2 T00561001 10056 21025
KGGI 201735Z AUTO 22007KT 10SM CLR 05/00 A2990 RMK AO2 T00501005
KGGI 201715Z AUTO 22007KT 10SM CLR 05/M01 A2991 RMK AO2 T00451006
KGGI 201655Z AUTO 23007KT 10SM CLR 04/M01 A2991 RMK AO2 T00401007
KGGI 201635Z AUTO 23006KT 10SM CLR 03/M01 A2991 RMK AO2 T00341010
KGGI 201615Z AUTO 23005KT 10SM CLR 03/M01 A2991 RMK AO2 T00251014
KGGI 201555Z AUTO 23007KT 10SM CLR 02/M02 A2990 RMK AO2 T00211017
KGGI 201535Z AUTO 21006KT 10SM CLR 02/M02 A2989 RMK AO2 T00171016
KGGI 201515Z AUTO 23005KT 10SM CLR 01/M02 A2989 RMK AO2 T00101019
KGGI 201455Z AUTO 22003KT 10SM CLR 00/M02 A2987 RMK AO2 T00001020
KGGI 201435Z AUTO 23003KT 10SM CLR M01/M03 A2987 RMK AO2 T10141031
KGGI 201415Z AUTO 23004KT 10SM CLR M01/M03 A2986 RMK AO2 T10151034
KGGI 201355Z AUTO 24005KT 10SM CLR M02/M04 A2986 RMK AO2 T10251041
KGGI 201335Z AUTO 23007KT 10SM CLR M02/M04 A2987 RMK AO2 T10171037
KGGI 201315Z AUTO 23006KT 10SM CLR M01/M03 A2986 RMK AO2 T10151035
KGGI 201255Z AUTO 22007KT 10SM CLR M02/M04 A2985 RMK AO2 T10171036
KGGI 201235Z AUTO 22006KT 10SM CLR M01/M03 A2985 RMK AO2 T10151035
KGGI 201215Z AUTO 22005KT 10SM CLR M01/M03 A2984 RMK AO2 T10121032
KGGI 201155Z AUTO 22007KT 10SM CLR M01/M03 A2984 RMK AO2 T10071030 10018 21007
KGGI 201135Z AUTO 21008KT 10SM CLR 00/M03 A2983 RMK AO2 T10051028
KGGI 201115Z AUTO 20006KT 10SM CLR 00/M03 A2983 RMK AO2 T10011027
KGGI 201055Z AUTO 22008KT 10SM CLR 00/M03 A2983 RMK AO2 T10051027
KGGI 201035Z AUTO 22008KT 10SM CLR 00/M02 A2983 RMK AO2 T00001025
KGGI 201015Z AUTO 21008KT 10SM CLR 00/M02 A2982 RMK AO2 T00001023
KGGI 200955Z AUTO 21007KT 10SM CLR 00/M02 A2981 RMK AO2 T00001025
KGGI 200935Z AUTO 20008KT 10SM CLR 00/M02 A2981 RMK AO2 T00001023
KGGI 200915Z AUTO 21007KT 10SM CLR 00/M02 A2982 RMK AO2 T00001025
KGGI 200855Z AUTO 22006KT 10SM CLR 00/M03 A2981 RMK AO2 T10031027
KGGI 200835Z AUTO 21005KT 10SM CLR 00/M02 A2980 RMK AO2 T00001023
KGGI 200815Z AUTO 22006KT 10SM CLR 00/M02 A2980 RMK AO2 T00031022
KGGI 200755Z AUTO 21007KT 10SM CLR 00/M02 A2979 RMK AO2 T00001024
KGGI 200735Z AUTO 22005KT 10SM CLR 00/M02 A2979 RMK AO2 T00001025
KGGI 200715Z AUTO 23006KT 10SM CLR 00/M02 A2979 RMK AO2 T00031024
KGGI 200655Z AUTO 23008KT 10SM CLR 01/M02 A2978 RMK AO2 T00101020
KGGI 200635Z AUTO 23007KT 10SM CLR 01/M02 A2978 RMK AO2 T00121020
KGGI 200615Z AUTO 22009KT 10SM CLR 02/M02 A2978 RMK AO2 T00171020
KGGI 200555Z AUTO 22010KT 10SM CLR 02/M02 A2978 RMK AO2 T00181020 10048 20018 400581027
KGGI 200535Z AUTO 22009KT 10SM CLR 02/M02 A2978 RMK AO2 T00191020
KGGI 200515Z AUTO 23009KT 10SM CLR 02/M02 A2977 RMK AO2 T00181020
KGGI 200455Z AUTO 22009KT 10SM CLR 02/M02 A2977 RMK AO2 T00221019
KGGI 200435Z AUTO 22011KT 10SM CLR 03/M02 A2976 RMK AO2 T00271018
KGGI 200415Z AUTO 22011KT 10SM CLR 03/M02 A2976 RMK AO2 T00301019
KGGI 200355Z AUTO 22012KT 10SM CLR 03/M02 A2976 RMK AO2 T00301020
KGGI 200335Z AUTO 22011KT 10SM CLR 03/M02 A2975 RMK AO2 T00271020
KGGI 200315Z AUTO 23011KT 10SM CLR 03/M02 A2975 RMK AO2 T00271019
KGGI 200255Z AUTO 22011KT 10SM CLR 03/M02 A2974 RMK AO2 T00271018
KGGI 200235Z AUTO 22011KT 10SM CLR 03/M02 A2974 RMK AO2 T00271017
KGGI 200215Z AUTO 23009KT 10SM CLR 03/M02 A2973 RMK AO2 T00311017
KGGI 200155Z AUTO 22012KT 10SM CLR 03/M02 A2972 RMK AO2 T00301017
KGGI 200135Z AUTO 22012KT 10SM CLR 04/M02 A2971 RMK AO2 T00381017
KGGI 200115Z AUTO 21013KT 10SM CLR 04/M02 A2971 RMK AO2 T00401018
KGGI 200055Z AUTO 20013KT 10SM CLR 04/M02 A2970 RMK AO2 T00411018
KGGI 200035Z AUTO 21011KT 10SM CLR 05/M02 A2971 RMK AO2 T00451020
KGGI 200015Z AUTO 20015KT 10SM CLR 05/M02 A2968 RMK AO2 T00471020
KGGI 192355Z AUTO 20013G18KT 10SM CLR 05/M02 A2968 RMK AO2 T00471018 10058 20041
KGGI 192335Z AUTO 21011KT 10SM CLR 05/M02 A2968 RMK AO2 T00451016
KGGI 192315Z AUTO 20010KT 10SM CLR 05/M01 A2968 RMK AO2 T00451013
KGGI 192255Z AUTO 20010KT 10SM CLR 05/M01 A2969 RMK AO2 T00481011
KGGI 192235Z AUTO 19011KT 10SM CLR 05/M01 A2968 RMK AO2 T00501010
KGGI 192215Z AUTO 19010G18KT 10SM CLR 06/M01 A2969 RMK AO2 T00561015
KGGI 192155Z AUTO 20012KT 10SM CLR 06/M02 A2968 RMK AO2 T00571016
KGGI 192135Z AUTO 19013G18KT 10SM CLR 06/M02 A2968 RMK AO2 T00581019
KGGI 192115Z AUTO 19014KT 10SM CLR 06/M02 A2968 RMK AO2 T00561018
KGGI 192055Z AUTO 19014KT 10SM CLR 06/M02 A2968 RMK AO2 T00551017
KGGI 192035Z AUTO 19014KT 10SM CLR 06/M02 A2968 RMK AO2 T00551017
KGGI 192015Z AUTO 19012KT 10SM CLR 06/M02 A2969 RMK AO2 T00571017
KGGI 191955Z AUTO 20013KT 10SM CLR 06/M02 A2970 RMK AO2 T00571017
KGGI 191935Z AUTO 20015KT 10SM CLR 06/M02 A2971 RMK AO2 T00571025
KGGI 191915Z AUTO 21014KT 10SM CLR 06/M03 A2972 RMK AO2 T00571026
KGGI 191855Z AUTO 22015G19KT 10SM CLR 06/M03 A2973 RMK AO2 T00551026
KGGI 191835Z AUTO 22013KT 10SM CLR 05/M03 A2974 RMK AO2 T00501031
KGGI 191815Z AUTO 21013G18KT 10SM CLR 05/M03 A2974 RMK AO2 T00451028
KGGI 191755Z AUTO 21019G22KT 10SM CLR 04/M03 A2974 RMK AO2 T00411033 10041 21020
KGGI 191735Z AUTO 20017G21KT 10SM CLR 04/M03 A2974 RMK AO2 T00361033
KGGI 191715Z AUTO 20017G23KT 10SM CLR 03/M03 A2976 RMK AO2 T00281035
KGGI 191655Z AUTO 21018G23KT 10SM CLR 03/M04 A2978 RMK AO2 T00251036
KGGI 191635Z AUTO 21018G23KT 10SM CLR 02/M04 A2978 RMK AO2 T00221038
KGGI 191615Z AUTO 20018KT 10SM CLR 02/M04 A2978 RMK AO2 T00181039
KGGI 191555Z AUTO 20014G20KT 10SM CLR 01/M04 A2979 RMK AO2 T00121040
KGGI 191535Z AUTO 20013KT 10SM CLR 01/M04 A2980 RMK AO2 T00061043
KGGI 191515Z AUTO 20012KT 10SM CLR 00/M05 A2980 RMK AO2 T00001046
KGGI 191455Z AUTO 20012G16KT 10SM CLR 00/M05 A2980 RMK AO2 T10031048